createdAt,value
2018-07-31T00:01:55.769Z,100619.41
2018-07-31T00:04:23.781Z,100619.36
2018-07-31T00:06:51.776Z,100613.53
2018-07-31T00:09:19.779Z,100606.38
2018-07-31T00:11:47.828Z,100611.86
2018-07-31T00:14:15.817Z,100601.56
2018-07-31T00:16:43.807Z,100607.50
2018-07-31T00:19:11.802Z,100600.73
2018-07-31T00:21:39.812Z,100601.25
2018-07-31T00:24:07.848Z,100602.39
2018-07-31T00:26:35.863Z,100597.72
2018-07-31T00:29:03.887Z,100598.20
2018-07-31T00:31:31.856Z,100597.66
2018-07-31T00:33:59.876Z,100594.42
2018-07-31T00:36:27.872Z,100594.08
2018-07-31T00:38:55.920Z,100595.16
2018-07-31T00:41:23.912Z,100592.80
2018-07-31T00:43:51.929Z,100593.41
2018-07-31T00:46:19.920Z,100590.14
2018-07-31T00:48:47.900Z,100590.09
2018-07-31T00:51:15.944Z,100590.09
2018-07-31T00:53:43.947Z,100588.98
2018-07-31T00:56:11.942Z,100585.31
2018-07-31T00:58:39.940Z,100588.02
2018-07-31T01:01:07.936Z,100586.02
2018-07-31T01:03:35.934Z,100581.77
2018-07-31T01:06:03.920Z,100588.15
2018-07-31T01:08:31.931Z,100587.66
2018-07-31T01:10:59.985Z,100586.89
2018-07-31T01:13:27.962Z,100577.56
2018-07-31T01:15:55.953Z,100572.83
2018-07-31T01:18:23.972Z,100579.02
2018-07-31T01:20:52.536Z,100571.56
2018-07-31T01:23:20.708Z,100568.77
2018-07-31T01:25:50.796Z,100568.73
2018-07-31T01:28:18.793Z,100580.14
2018-07-31T01:30:46.771Z,100571.25
2018-07-31T01:33:14.776Z,100571.92
2018-07-31T01:35:42.776Z,100572.80
2018-07-31T01:38:10.772Z,100564.11
2018-07-31T01:40:38.785Z,100567.77
2018-07-31T01:43:06.932Z,100561.26
2018-07-31T01:45:35.038Z,100561.41
2018-07-31T01:48:03.049Z,100559.55
2018-07-31T01:50:31.085Z,100554.28
2018-07-31T01:52:59.232Z,100553.23
2018-07-31T01:55:27.272Z,100550.42
2018-07-31T01:57:55.272Z,100547.91
2018-07-31T02:00:23.492Z,100546.56
2018-07-31T02:02:51.485Z,100552.83
2018-07-31T02:05:19.481Z,100543.64
2018-07-31T02:07:47.482Z,100547.12
2018-07-31T02:10:15.500Z,100540.42
2018-07-31T02:12:43.565Z,100537.52
2018-07-31T02:15:11.564Z,100523.91
2018-07-31T02:17:39.572Z,100525.27
2018-07-31T02:20:07.608Z,100527.09
2018-07-31T02:22:35.644Z,100525.84
2018-07-31T02:25:03.666Z,100520.58
2018-07-31T02:27:31.664Z,100518.52
2018-07-31T02:30:05.116Z,100525.46
2018-07-31T02:32:33.106Z,100523.02
2018-07-31T02:35:01.106Z,100512.81
2018-07-31T02:37:29.212Z,100519.02
2018-07-31T02:39:57.240Z,100515.70
2018-07-31T02:42:26.520Z,100522.19
2018-07-31T02:44:54.556Z,100518.84
2018-07-31T02:47:22.557Z,100520.27
2018-07-31T02:49:50.561Z,100524.97
2018-07-31T02:52:18.611Z,100521.87
2018-07-31T02:54:46.592Z,100524.70
2018-07-31T02:57:14.597Z,100524.19
2018-07-31T02:59:42.608Z,100524.19
2018-07-31T03:02:10.662Z,100526.70
2018-07-31T03:04:38.652Z,100524.72
2018-07-31T03:07:06.833Z,100527.67
2018-07-31T03:09:34.848Z,100526.75
2018-07-31T03:12:02.872Z,100532.81
2018-07-31T03:14:30.876Z,100528.81
2018-07-31T03:16:58.900Z,100528.37
2018-07-31T03:19:26.925Z,100526.33
2018-07-31T03:21:54.960Z,100525.59
2018-07-31T03:24:22.962Z,100521.98
2018-07-31T03:26:50.984Z,100526.34
2018-07-31T03:29:18.985Z,100527.68
2018-07-31T03:31:46.984Z,100526.16
2018-07-31T03:34:14.985Z,100527.81
2018-07-31T03:36:43.119Z,100530.52
2018-07-31T03:39:11.349Z,100532.66
2018-07-31T03:41:39.433Z,100531.74
2018-07-31T03:44:07.596Z,100530.34
2018-07-31T03:46:35.615Z,100530.56
2018-07-31T03:49:03.610Z,100539.98
2018-07-31T03:51:31.620Z,100524.98
2018-07-31T03:53:59.705Z,100527.55
2018-07-31T03:56:27.800Z,100533.59
2018-07-31T03:58:55.818Z,100527.45
2018-07-31T04:01:23.951Z,100523.62
2018-07-31T04:03:51.934Z,100525.50
2018-07-31T04:06:20.156Z,100522.75
2018-07-31T04:08:48.165Z,100527.28
2018-07-31T04:11:16.160Z,100526.31
2018-07-31T04:13:44.153Z,100531.03
2018-07-31T04:16:12.162Z,100532.55
2018-07-31T04:18:40.181Z,100532.64
2018-07-31T04:21:08.193Z,100532.30
2018-07-31T04:23:36.194Z,100534.42
2018-07-31T04:26:04.197Z,100537.44
2018-07-31T04:28:32.197Z,100536.07
2018-07-31T04:31:00.209Z,100534.56
2018-07-31T04:33:28.242Z,100528.70
2018-07-31T04:35:56.368Z,100534.04
2018-07-31T04:38:24.325Z,100532.37
2018-07-31T04:40:52.325Z,100533.20
2018-07-31T04:43:20.324Z,100522.79
2018-07-31T04:45:48.328Z,100536.02
2018-07-31T04:48:16.397Z,100532.92
2018-07-31T04:50:44.409Z,100525.88
2018-07-31T04:53:12.444Z,100532.42
2018-07-31T04:55:40.464Z,100531.33
2018-07-31T04:58:08.510Z,100529.86
2018-07-31T05:00:36.480Z,100525.94
2018-07-31T05:03:04.529Z,100534.83
2018-07-31T05:05:32.543Z,100538.14
2018-07-31T05:08:00.569Z,100534.41
2018-07-31T05:10:28.548Z,100538.59
2018-07-31T05:12:56.604Z,100541.55
2018-07-31T05:15:24.661Z,100544.86
2018-07-31T05:17:52.681Z,100544.72
2018-07-31T05:20:20.692Z,100549.94
2018-07-31T05:22:48.713Z,100547.97
2018-07-31T05:25:16.883Z,100551.77
2018-07-31T05:27:44.860Z,100547.50
2018-07-31T05:30:12.960Z,100560.86
2018-07-31T05:32:41.113Z,100567.55
2018-07-31T05:35:09.812Z,100574.55
2018-07-31T05:37:38.005Z,100573.66
2018-07-31T05:40:06.972Z,100576.05
2018-07-31T05:42:34.981Z,100582.27
2018-07-31T05:45:02.969Z,100590.00
2018-07-31T05:47:30.986Z,100586.14
2018-07-31T05:49:58.972Z,100590.02
2018-07-31T05:52:27.177Z,100593.77
2018-07-31T05:54:55.231Z,100594.47
2018-07-31T05:57:23.383Z,100603.52
2018-07-31T05:59:51.552Z,100605.27
2018-07-31T06:02:19.612Z,100609.61
2018-07-31T06:04:47.677Z,100613.27
2018-07-31T06:07:15.770Z,100611.61
2018-07-31T06:09:43.757Z,100613.14
2018-07-31T06:12:12.805Z,100618.72
2018-07-31T06:14:40.856Z,100621.55
2018-07-31T06:17:08.960Z,100627.08
2018-07-31T06:19:38.057Z,100622.92
2018-07-31T06:22:06.435Z,100628.47
2018-07-31T06:24:34.509Z,100634.39
2018-07-31T06:27:02.591Z,100629.42
2018-07-31T06:29:30.512Z,100625.20
2018-07-31T06:31:58.509Z,100627.80
2018-07-31T06:34:26.608Z,100634.55
2018-07-31T06:36:54.596Z,100632.89
2018-07-31T06:39:22.587Z,100632.86
2018-07-31T06:41:50.607Z,100626.14
2018-07-31T06:44:18.596Z,100627.03
2018-07-31T06:46:46.638Z,100629.16
2018-07-31T06:49:14.648Z,100628.32
2018-07-31T06:51:42.746Z,100635.92
2018-07-31T06:54:10.748Z,100636.00
2018-07-31T06:56:38.773Z,100638.05
2018-07-31T06:59:06.716Z,100640.41
2018-07-31T07:01:34.747Z,100632.97
2018-07-31T07:04:02.741Z,100634.74
2018-07-31T07:06:30.720Z,100638.77
2018-07-31T07:08:58.697Z,100641.52
2018-07-31T07:11:26.680Z,100646.33
2018-07-31T07:13:54.704Z,100649.42
2018-07-31T07:16:22.684Z,100652.38
2018-07-31T07:18:50.672Z,100653.27
2018-07-31T07:21:18.691Z,100658.73
2018-07-31T07:23:46.841Z,100655.36
2018-07-31T07:26:14.817Z,100649.29
2018-07-31T07:28:42.784Z,100644.57
2018-07-31T07:31:10.775Z,100644.56
2018-07-31T07:33:38.828Z,100644.08
2018-07-31T07:36:06.844Z,100641.48
2018-07-31T07:38:34.832Z,100641.89
2018-07-31T07:41:02.800Z,100641.90
2018-07-31T07:43:30.788Z,100640.31
2018-07-31T07:45:58.773Z,100641.27
2018-07-31T07:48:26.858Z,100631.13
2018-07-31T07:50:54.728Z,100631.07
2018-07-31T07:53:22.756Z,100629.17
2018-07-31T07:55:50.741Z,100627.50
2018-07-31T07:58:18.724Z,100634.19
2018-07-31T08:00:47.589Z,100642.38
2018-07-31T08:03:15.572Z,100644.91
2018-07-31T08:05:43.548Z,100638.50
2018-07-31T08:08:11.817Z,100645.46
2018-07-31T08:10:42.137Z,100647.34
2018-07-31T08:13:10.160Z,100644.84
2018-07-31T08:15:38.132Z,100638.81
2018-07-31T08:18:06.116Z,100641.83
2018-07-31T08:20:34.378Z,100638.91
2018-07-31T08:23:02.356Z,100636.02
2018-07-31T08:25:30.451Z,100644.73
2018-07-31T08:27:58.436Z,100646.20
2018-07-31T08:30:26.460Z,100646.31
2018-07-31T08:32:54.595Z,100645.51
2018-07-31T08:35:22.630Z,100643.58
2018-07-31T08:37:50.709Z,100647.34
2018-07-31T08:40:18.706Z,100641.52
2018-07-31T08:42:46.748Z,100640.26
2018-07-31T08:45:14.776Z,100642.30
2018-07-31T08:47:42.884Z,100647.69
2018-07-31T08:50:10.860Z,100648.42
2018-07-31T08:52:38.845Z,100647.63
2018-07-31T08:55:06.824Z,100649.05
2018-07-31T08:57:34.817Z,100644.78
2018-07-31T09:00:02.822Z,100648.59
2018-07-31T09:02:30.924Z,100654.69
2018-07-31T09:04:58.916Z,100655.09
2018-07-31T09:07:26.884Z,100649.43
2018-07-31T09:09:54.876Z,100649.00
2018-07-31T09:12:22.888Z,100657.33
2018-07-31T09:14:50.858Z,100653.80
2018-07-31T09:17:18.832Z,100648.82
2018-07-31T09:19:46.922Z,100651.45
2018-07-31T09:22:14.967Z,100639.75
2018-07-31T09:24:42.907Z,100642.97
2018-07-31T09:27:11.041Z,100641.02
2018-07-31T09:29:39.040Z,100636.98
2018-07-31T09:32:07.032Z,100641.66
2018-07-31T09:34:40.456Z,100634.53
2018-07-31T09:37:08.432Z,100646.61
2018-07-31T09:39:36.516Z,100643.06
2018-07-31T09:42:04.543Z,100643.77
2018-07-31T09:44:32.536Z,100643.39
2018-07-31T09:47:00.517Z,100650.27
2018-07-31T09:49:28.524Z,100656.25
2018-07-31T09:51:56.552Z,100656.77
2018-07-31T09:54:24.572Z,100660.18
2018-07-31T09:56:52.962Z,100657.73
2018-07-31T09:59:20.944Z,100659.01
2018-07-31T10:01:48.939Z,100653.59
2018-07-31T10:04:16.972Z,100659.44
2018-07-31T10:06:44.969Z,100662.95
2018-07-31T10:09:13.052Z,100659.31
2018-07-31T10:11:41.057Z,100656.66
2018-07-31T10:14:09.068Z,100650.88
2018-07-31T10:16:37.130Z,100653.02
2018-07-31T10:19:05.112Z,100647.78
2018-07-31T10:21:33.212Z,100650.63
2018-07-31T10:24:01.244Z,100645.33
2018-07-31T10:26:29.200Z,100649.27
2018-07-31T10:28:57.243Z,100642.45
2018-07-31T10:31:25.224Z,100639.34
2018-07-31T10:33:53.300Z,100638.27
2018-07-31T10:36:21.358Z,100647.71
2018-07-31T10:38:49.380Z,100644.67
2018-07-31T10:41:17.423Z,100643.05
2018-07-31T10:43:45.421Z,100641.94
2018-07-31T10:46:13.431Z,100647.08
2018-07-31T10:48:41.412Z,100645.72
2018-07-31T10:51:09.412Z,100652.31
2018-07-31T10:53:37.414Z,100646.49
2018-07-31T10:56:05.584Z,100648.18
2018-07-31T10:58:33.664Z,100642.23
2018-07-31T11:01:01.661Z,100642.41
2018-07-31T11:03:29.640Z,100645.94
2018-07-31T11:05:57.730Z,100645.70
2018-07-31T11:08:25.782Z,100650.91
2018-07-31T11:10:53.820Z,100652.00
2018-07-31T11:13:21.918Z,100656.78
2018-07-31T11:15:49.799Z,100655.20
2018-07-31T11:18:17.775Z,100665.69
2018-07-31T11:20:45.781Z,100662.10
2018-07-31T11:23:13.848Z,100659.34
2018-07-31T11:25:41.897Z,100657.69
2018-07-31T11:28:09.884Z,100660.95
2018-07-31T11:30:37.909Z,100666.78
2018-07-31T11:33:05.906Z,100660.91
2018-07-31T11:35:33.872Z,100658.18
2018-07-31T11:38:01.867Z,100660.14
2018-07-31T11:40:29.903Z,100653.22
2018-07-31T11:42:57.980Z,100667.04
2018-07-31T11:45:26.118Z,100659.58
2018-07-31T11:47:54.188Z,100656.00
2018-07-31T11:50:22.345Z,100659.88
2018-07-31T11:52:50.488Z,100658.41
2018-07-31T11:55:18.536Z,100649.89
2018-07-31T11:57:47.623Z,100649.63
2018-07-31T12:00:15.611Z,100650.94
2018-07-31T12:02:43.652Z,100641.66
2018-07-31T12:05:11.749Z,100638.30
2018-07-31T12:07:39.868Z,100637.54
2018-07-31T12:10:07.920Z,100639.72
2018-07-31T12:12:36.066Z,100632.53
2018-07-31T12:15:04.564Z,100632.89
2018-07-31T12:17:32.612Z,100622.25
2018-07-31T12:20:00.598Z,100634.63
2018-07-31T12:22:28.666Z,100630.79
2018-07-31T12:24:56.653Z,100621.69
2018-07-31T12:27:24.632Z,100620.01
2018-07-31T12:29:52.686Z,100622.73
2018-07-31T12:32:20.701Z,100626.08
2018-07-31T12:34:48.684Z,100624.48
2018-07-31T12:37:16.676Z,100621.72
2018-07-31T12:39:44.676Z,100623.63
2018-07-31T12:42:12.673Z,100614.20
2018-07-31T12:44:40.776Z,100620.77
2018-07-31T12:47:08.968Z,100627.44
2018-07-31T12:49:37.200Z,100616.89
2018-07-31T12:52:05.232Z,100622.02
2018-07-31T12:54:33.217Z,100621.53
2018-07-31T12:57:01.376Z,100632.16
2018-07-31T12:59:29.532Z,100627.18
2018-07-31T13:01:57.713Z,100626.22
2018-07-31T13:04:25.732Z,100626.73
2018-07-31T13:06:53.902Z,100625.72
2018-07-31T13:09:21.873Z,100620.02
2018-07-31T13:11:49.961Z,100633.86
2018-07-31T13:14:18.033Z,100622.03
2018-07-31T13:16:46.311Z,100623.66
2018-07-31T13:19:14.409Z,100618.42
2018-07-31T13:21:42.708Z,100616.02
2018-07-31T13:24:10.769Z,100617.20
2018-07-31T13:26:38.881Z,100620.75
2018-07-31T13:29:07.037Z,100612.83
2018-07-31T13:31:35.128Z,100602.64
2018-07-31T13:34:03.260Z,100605.91
2018-07-31T13:36:31.368Z,100600.69
2018-07-31T13:38:59.500Z,100604.23
2018-07-31T13:41:27.669Z,100608.45
2018-07-31T13:43:56.090Z,100616.16
2018-07-31T13:46:24.161Z,100609.80
2018-07-31T13:48:52.310Z,100610.69
2018-07-31T13:51:20.479Z,100611.88
2018-07-31T13:53:48.550Z,100617.57
2018-07-31T13:56:16.624Z,100611.64
2018-07-31T13:58:45.817Z,100617.84
2018-07-31T14:01:13.976Z,100612.03
2018-07-31T14:03:41.978Z,100614.93
2018-07-31T14:06:09.948Z,100616.28
2018-07-31T14:08:38.630Z,100616.72
2018-07-31T14:11:06.665Z,100617.77
2018-07-31T14:13:34.664Z,100614.56
2018-07-31T14:16:02.788Z,100611.88
2018-07-31T14:18:30.842Z,100618.04
2018-07-31T14:22:02.453Z,100623.48
2018-07-31T14:24:30.569Z,100618.39
2018-07-31T14:26:58.788Z,100614.54
2018-07-31T14:29:26.756Z,100625.52
2018-07-31T14:31:54.772Z,100630.49
2018-07-31T14:34:22.800Z,100628.08
2018-07-31T14:36:50.796Z,100633.09
2018-07-31T14:39:18.794Z,100632.36
2018-07-31T14:41:46.772Z,100634.13
2018-07-31T14:44:14.770Z,100633.00
2018-07-31T14:46:42.752Z,100631.41
2018-07-31T14:49:10.762Z,100637.42
2018-07-31T14:51:38.808Z,100636.63
2018-07-31T14:54:06.969Z,100641.63
2018-07-31T14:56:34.974Z,100633.36
2018-07-31T14:59:02.959Z,100635.60
2018-07-31T15:01:31.016Z,100629.83
2018-07-31T15:03:59.037Z,100626.78
2018-07-31T15:06:27.280Z,100636.44
2018-07-31T15:08:55.342Z,100647.72
2018-07-31T15:11:23.473Z,100647.75
2018-07-31T15:13:51.651Z,100634.20
2018-07-31T15:16:19.743Z,100649.70
2018-07-31T15:18:47.740Z,100651.89
2018-07-31T15:21:15.756Z,100649.93
2018-07-31T15:23:43.726Z,100645.53
2018-07-31T15:26:11.744Z,100646.34
2018-07-31T15:28:39.770Z,100641.69
2018-07-31T15:31:07.745Z,100643.33
2018-07-31T15:33:35.840Z,100648.30
2018-07-31T15:36:03.839Z,100647.17
2018-07-31T15:38:31.869Z,100644.97
2018-07-31T15:40:59.936Z,100647.17
2018-07-31T15:43:27.977Z,100657.63
2018-07-31T15:45:56.037Z,100638.93
2018-07-31T15:48:24.517Z,100639.75
2018-07-31T15:50:52.512Z,100646.93
2018-07-31T15:53:20.512Z,100649.70
2018-07-31T15:55:48.573Z,100652.12
2018-07-31T15:58:16.590Z,100643.30
2018-07-31T16:00:44.628Z,100645.48
2018-07-31T16:03:12.680Z,100644.67
2018-07-31T16:05:40.744Z,100641.69
2018-07-31T16:08:08.713Z,100649.09
2018-07-31T16:10:36.740Z,100646.87
2018-07-31T16:13:04.733Z,100651.00
2018-07-31T16:15:32.749Z,100647.16
2018-07-31T16:18:00.809Z,100636.33
2018-07-31T16:20:28.816Z,100641.58
2018-07-31T16:22:56.881Z,100649.45
2018-07-31T16:25:24.797Z,100649.34
2018-07-31T16:27:52.808Z,100641.61
2018-07-31T16:30:20.820Z,100643.69
2018-07-31T16:32:48.793Z,100645.37
2018-07-31T16:35:16.792Z,100645.73
2018-07-31T16:37:44.841Z,100646.70
2018-07-31T16:40:12.856Z,100643.47
2018-07-31T16:42:40.986Z,100648.14
2018-07-31T16:45:09.000Z,100647.23
2018-07-31T16:47:37.150Z,100646.14
2018-07-31T16:50:05.388Z,100661.52
2018-07-31T16:52:33.362Z,100652.23
2018-07-31T16:55:01.356Z,100667.17
2018-07-31T16:57:29.332Z,100677.64
2018-07-31T16:59:57.308Z,100684.86
2018-07-31T17:02:25.456Z,100686.52
2018-07-31T17:04:53.450Z,100696.89
2018-07-31T17:07:21.445Z,100706.38
2018-07-31T17:09:49.548Z,100709.73
2018-07-31T17:12:17.596Z,100717.06
2018-07-31T17:14:45.609Z,100718.03
2018-07-31T17:17:13.669Z,100714.17
2018-07-31T17:19:41.745Z,100716.19
2018-07-31T17:22:09.756Z,100729.63
2018-07-31T17:24:37.980Z,100732.10
2018-07-31T17:27:06.011Z,100736.43
2018-07-31T17:29:34.017Z,100738.66
2018-07-31T17:32:02.162Z,100743.78
2018-07-31T17:34:30.157Z,100748.45
2018-07-31T17:36:58.174Z,100754.99
2018-07-31T17:39:26.203Z,100758.88
2018-07-31T17:41:54.268Z,100754.09
2018-07-31T17:44:22.324Z,100762.95
2018-07-31T17:46:50.684Z,100764.89
2018-07-31T17:49:18.724Z,100767.39
2018-07-31T17:51:46.740Z,100770.52
2018-07-31T17:54:14.740Z,100776.99
2018-07-31T17:56:42.769Z,100785.70
2018-07-31T17:59:10.924Z,100786.80
2018-07-31T18:01:39.062Z,100787.96
2018-07-31T18:04:07.191Z,100791.07
2018-07-31T18:06:35.176Z,100794.92
2018-07-31T18:09:03.312Z,100811.00
2018-07-31T18:11:31.313Z,100812.59
2018-07-31T18:13:59.330Z,100816.48
2018-07-31T18:16:27.385Z,100822.44
2018-07-31T18:18:55.555Z,100819.72
2018-07-31T18:21:23.612Z,100813.72
2018-07-31T18:23:51.663Z,100821.98
2018-07-31T18:26:19.668Z,100820.41
2018-07-31T18:28:47.665Z,100820.73
2018-07-31T18:31:15.753Z,100820.83
2018-07-31T18:33:43.746Z,100837.95
2018-07-31T18:36:11.747Z,100836.81
2018-07-31T18:38:39.772Z,100842.98
2018-07-31T18:41:07.900Z,100848.45
2018-07-31T18:43:35.799Z,100858.17
2018-07-31T18:46:03.896Z,100859.87
2018-07-31T18:48:32.002Z,100857.91
2018-07-31T18:51:00.057Z,100864.92
2018-07-31T18:53:28.276Z,100862.79
2018-07-31T18:55:56.517Z,100868.20
2018-07-31T18:58:25.912Z,100873.72
2018-07-31T19:00:54.558Z,100872.65
2018-07-31T19:03:22.632Z,100878.42
2018-07-31T19:05:50.652Z,100883.52
2018-07-31T19:08:18.769Z,100891.94
2018-07-31T19:10:46.964Z,100894.53
2018-07-31T19:13:15.084Z,100896.94
2018-07-31T19:15:43.289Z,100901.45
2018-07-31T19:18:11.324Z,100906.34
2018-07-31T19:20:39.551Z,100899.91
2018-07-31T19:23:07.713Z,100900.01
2018-07-31T19:25:35.772Z,100901.28
2018-07-31T19:28:03.969Z,100905.27
2018-07-31T19:30:31.956Z,100909.55
2018-07-31T19:33:00.163Z,100919.09
2018-07-31T19:35:28.322Z,100913.98
2018-07-31T19:37:56.491Z,100925.11
2018-07-31T19:40:25.137Z,100923.89
2018-07-31T19:42:53.568Z,100934.85
2018-07-31T19:45:21.831Z,100934.36
2018-07-31T19:47:50.353Z,100929.99
2018-07-31T19:50:18.552Z,100933.11
2018-07-31T19:52:46.936Z,100933.36
2018-07-31T19:55:14.989Z,100931.10
2018-07-31T19:57:42.996Z,100939.40
2018-07-31T20:00:11.028Z,100943.98
2018-07-31T20:02:39.111Z,100948.77
2018-07-31T20:05:07.426Z,100954.31
2018-07-31T20:07:35.456Z,100954.52
2018-07-31T20:10:03.531Z,100960.64
2018-07-31T20:12:31.748Z,100959.79
2018-07-31T20:14:59.696Z,100958.50
2018-07-31T20:17:27.776Z,100952.11
2018-07-31T20:19:55.794Z,100954.44
2018-07-31T20:22:23.852Z,100969.75
2018-07-31T20:24:52.112Z,100971.10
2018-07-31T20:27:20.156Z,100975.16
2018-07-31T20:29:48.188Z,100971.53
2018-07-31T20:32:16.434Z,100975.39
2018-07-31T20:34:45.547Z,100977.34
2018-07-31T20:37:13.661Z,100980.64
2018-07-31T20:39:41.793Z,100975.69
2018-07-31T20:42:09.937Z,100976.37
2018-07-31T20:44:37.992Z,100984.69
2018-07-31T20:47:06.178Z,100984.27
2018-07-31T20:49:34.291Z,100994.55
2018-07-31T20:52:02.389Z,100997.89
2018-07-31T20:54:30.399Z,100998.02
2018-07-31T20:56:58.444Z,101001.05
2018-07-31T20:59:26.619Z,101007.83
2018-07-31T21:01:54.753Z,101016.94
2018-07-31T21:04:23.100Z,101017.20
2018-07-31T21:06:51.156Z,101021.11
2018-07-31T21:09:21.185Z,101020.13
2018-07-31T21:11:49.989Z,101019.08
2018-07-31T21:14:18.250Z,101021.19
2018-07-31T21:16:46.417Z,101023.58
2018-07-31T21:19:14.480Z,101031.19
2018-07-31T21:21:42.540Z,101037.61
2018-07-31T21:24:10.604Z,101042.84
2018-07-31T21:26:38.775Z,101042.50
2018-07-31T21:29:06.800Z,101040.98
2018-07-31T21:31:34.828Z,101047.55
2018-07-31T21:34:02.961Z,101051.44
2018-07-31T21:36:31.096Z,101041.16
2018-07-31T21:38:59.120Z,101041.31
2018-07-31T21:41:27.321Z,101039.97
2018-07-31T21:43:55.424Z,101046.73
2018-07-31T21:46:23.556Z,101057.02
2018-07-31T21:48:51.719Z,101058.02
2018-07-31T21:51:19.866Z,101066.95
2018-07-31T21:53:47.956Z,101066.61
2018-07-31T21:56:16.084Z,101073.69
2018-07-31T21:58:44.142Z,101066.46
2018-07-31T22:01:12.293Z,101069.47
2018-07-31T22:03:40.368Z,101081.63
2018-07-31T22:06:08.552Z,101077.75
2018-07-31T22:08:37.358Z,101084.32
2018-07-31T22:11:05.630Z,101087.20
2018-07-31T22:13:33.637Z,101092.76
2018-07-31T22:16:01.732Z,101084.33
2018-07-31T22:18:29.744Z,101086.67
2018-07-31T22:20:57.761Z,101089.73
2018-07-31T22:23:25.936Z,101101.19
2018-07-31T22:25:53.964Z,101113.11
2018-07-31T22:28:22.046Z,101114.13
2018-07-31T22:30:50.048Z,101117.84
2018-07-31T22:33:18.077Z,101116.16
2018-07-31T22:35:46.111Z,101113.45
2018-07-31T22:38:14.147Z,101118.27
2018-07-31T22:40:42.192Z,101121.47
2018-07-31T22:43:10.234Z,101120.67
2018-07-31T22:45:38.225Z,101112.28
2018-07-31T22:48:06.249Z,101114.92
2018-07-31T22:50:34.389Z,101109.70
2018-07-31T22:53:02.416Z,101109.23
2018-07-31T22:55:30.501Z,101117.84
2018-07-31T22:57:58.695Z,101117.31
2018-07-31T23:00:26.661Z,101121.72
2018-07-31T23:02:54.660Z,101118.28
2018-07-31T23:05:22.652Z,101120.75
2018-07-31T23:07:50.648Z,101117.00
2018-07-31T23:10:20.257Z,101110.41
2018-07-31T23:12:49.248Z,101112.27
2018-07-31T23:15:17.254Z,101116.16
2018-07-31T23:17:45.244Z,101116.48
2018-07-31T23:20:13.253Z,101118.67
2018-07-31T23:22:44.141Z,101125.94
2018-07-31T23:25:12.120Z,101122.59
2018-07-31T23:30:08.105Z,101102.00
2018-07-31T23:32:36.608Z,101105.36
2018-07-31T23:35:04.883Z,101110.92
2018-07-31T23:37:32.964Z,101105.05
2018-07-31T23:40:02.046Z,101108.23
2018-07-31T23:42:30.506Z,101108.78
2018-07-31T23:44:58.523Z,101118.90
2018-07-31T23:47:27.584Z,101120.06
2018-07-31T23:49:55.696Z,101124.66
2018-07-31T23:52:23.715Z,101120.60
2018-07-31T23:54:51.786Z,101119.91
2018-07-31T23:57:19.760Z,101126.64
2018-07-31T23:59:47.776Z,101121.75
